Time;durP1;ratioP1;P1;durP2;ratioP2;P2;SDS_P1;SDS_P2;PMS_P1;PMS_P2;Temp;Humidity;BMP_temperature;BMP_pressure;BME280_temperature;BME280_humidity;BME280_pressure;Samples;Min_cycle;Max_cycle;Signal;HPM_P1;HPM_P2
2021/03/28 00:01:43;;;;;;;15.47;2.80;;;;;;;;;;4358459;32;20217;-77
2021/03/28 00:04:10;;;;;;;8.90;2.60;;;;;;;;;;4358807;32;20305;-78
2021/03/28 00:06:35;;;;;;;14.10;2.73;;;;;;;;;;4358880;32;20167;-78
2021/03/28 00:09:05;;;;;;;19.20;2.60;;;;;;;;;;4361923;32;20178;-76
2021/03/28 00:11:31;;;;;;;18.67;2.53;;;;;;;;;;4362960;32;20139;-78
2021/03/28 00:14:00;;;;;;;14.20;2.90;;;;;;;;;;4364663;32;20177;-76
2021/03/28 00:16:30;;;;;;;11.33;2.30;;;;;;;;;;4363286;32;20226;-77
2021/03/28 00:19:00;;;;;;;9.87;1.90;;;;;;;;;;4362002;32;20198;-77
2021/03/28 00:21:32;;;;;;;15.27;2.63;;;;;;;;;;4361325;32;20155;-77
2021/03/28 00:24:05;;;;;;;16.73;3.07;;;;;;;;;;4362693;32;20135;-78
2021/03/28 00:26:32;;;;;;;18.83;2.77;;;;;;;;;;4360902;32;20163;-77
2021/03/28 00:29:23;;;;;;;15.27;2.70;;;;;;;;;;4361065;32;20167;-77
2021/03/28 00:31:54;;;;;;;15.03;2.53;;;;;;;;;;4360822;32;20202;-77
2021/03/28 00:34:25;;;;;;;17.00;2.73;;;;;;;;;;4360823;32;20175;-76
2021/03/28 00:36:51;;;;;;;14.93;2.80;;;;;;;;;;4362373;32;20143;-77
2021/03/28 00:39:37;;;;;;;14.50;2.63;;;;;;;;;;4360696;32;20234;-76
2021/03/28 00:42:06;;;;;;;12.30;2.43;;;;;;;;;;4360435;32;20166;-77
2021/03/28 00:44:44;;;;;;;12.13;2.80;;;;;;;;;;4362503;32;20194;-77
2021/03/28 00:47:11;;;;;;;14.50;2.27;;;;;;;;;;4361146;32;20201;-77
2021/03/28 00:49:39;;;;;;;10.97;2.43;;;;;;;;;;4362242;32;20185;-77
2021/03/28 00:52:07;;;;;;;13.80;2.87;;;;;;;;;;4360887;32;20171;-77
2021/03/28 00:54:55;;;;;;;17.17;2.53;;;;;;;;;;4362309;32;20140;-77
2021/03/28 00:57:32;;;;;;;17.30;2.93;;;;;;;;;;4356513;32;20213;-77
2021/03/28 01:00:17;;;;;;;14.67;2.70;;;;;;;;;;4362656;32;20182;-77
2021/03/28 01:02:54;;;;;;;15.43;2.57;;;;;;;;;;4361108;32;20194;-76
2021/03/28 01:05:19;;;;;;;14.83;2.50;;;;;;;;;;4361331;32;20167;-77
2021/03/28 01:07:53;;;;;;;12.40;2.57;;;;;;;;;;4361968;32;20219;-77
2021/03/28 01:10:37;;;;;;;15.43;2.83;;;;;;;;;;4360285;32;20228;-77
2021/03/28 01:13:25;;;;;;;13.87;2.73;;;;;;;;;;4360184;32;20484;-77
2021/03/28 01:16:09;;;;;;;9.97;2.60;;;;;;;;;;4361806;32;20155;-78
2021/03/28 01:18:38;;;;;;;16.53;2.60;;;;;;;;;;4360606;32;20205;-77
2021/03/28 01:21:09;;;;;;;11.70;2.60;;;;;;;;;;4359616;32;20171;-77
2021/03/28 01:23:42;;;;;;;12.53;2.70;;;;;;;;;;4360149;32;20256;-75
2021/03/28 01:26:10;;;;;;;15.53;2.67;;;;;;;;;;4360480;32;20262;-78
2021/03/28 01:28:41;;;;;;;16.70;3.23;;;;;;;;;;4360950;32;20232;-78
2021/03/28 01:31:28;;;;;;;16.63;3.03;;;;;;;;;;4360053;32;20205;-77
2021/03/28 01:34:03;;;;;;;16.13;3.03;;;;;;;;;;4361660;32;20190;-76
2021/03/28 01:36:31;;;;;;;9.90;2.87;;;;;;;;;;4361484;32;20201;-76
2021/03/28 01:39:16;;;;;;;14.53;3.17;;;;;;;;;;4361779;32;20135;-77
2021/03/28 01:42:08;;;;;;;12.83;3.40;;;;;;;;;;4361484;32;20175;-75
2021/03/28 01:44:47;;;;;;;11.80;3.00;;;;;;;;;;4359288;32;20197;-77
2021/03/28 01:47:19;;;;;;;8.10;2.87;;;;;;;;;;4362813;32;20185;-76
2021/03/28 01:49:53;;;;;;;10.50;3.10;;;;;;;;;;4362203;32;20202;-77
2021/03/28 01:52:18;;;;;;;11.37;2.93;;;;;;;;;;4376803;32;20186;-77
2021/03/28 01:55:03;;;;;;;13.17;3.20;;;;;;;;;;4362112;32;20170;-77
2021/03/28 01:57:37;;;;;;;12.60;2.90;;;;;;;;;;4375919;32;20201;-77
2021/03/28 02:00:17;;;;;;;11.00;2.77;;;;;;;;;;4376453;32;20151;-77
2021/03/28 02:03:01;;;;;;;13.93;2.97;;;;;;;;;;4375801;32;20193;-76
2021/03/28 02:05:45;;;;;;;15.07;2.77;;;;;;;;;;4362550;32;20204;-76
2021/03/28 02:08:24;;;;;;;15.13;2.87;;;;;;;;;;4376375;32;20186;-77
2021/03/28 02:11:18;;;;;;;12.70;3.27;;;;;;;;;;4363106;32;20174;-76
2021/03/28 02:13:59;;;;;;;16.50;3.27;;;;;;;;;;4361886;32;20171;-77
2021/03/28 02:16:27;;;;;;;8.47;2.83;;;;;;;;;;4375999;32;20135;-77
2021/03/28 02:18:55;;;;;;;22.70;3.93;;;;;;;;;;4361796;32;20174;-77
2021/03/28 02:21:39;;;;;;;14.23;3.43;;;;;;;;;;4376683;32;20459;-77
2021/03/28 02:24:19;;;;;;;13.73;3.50;;;;;;;;;;4376016;32;20143;-77
2021/03/28 02:26:50;;;;;;;16.97;3.20;;;;;;;;;;4376160;32;20186;-78
2021/03/28 02:29:20;;;;;;;16.93;4.53;;;;;;;;;;4361912;32;20166;-78
2021/03/28 02:32:11;;;;;;;10.67;3.00;;;;;;;;;;4376480;32;20158;-77
2021/03/28 02:34:40;;;;;;;10.63;3.03;;;;;;;;;;4376025;32;20154;-78
2021/03/28 02:37:12;;;;;;;15.10;3.97;;;;;;;;;;4375501;32;20165;-77
2021/03/28 02:39:45;;;;;;;11.93;2.93;;;;;;;;;;4375683;32;20213;-76
2021/03/28 02:42:23;;;;;;;12.30;3.23;;;;;;;;;;4362250;32;20183;-77
2021/03/28 02:45:03;;;;;;;14.53;3.23;;;;;;;;;;4375593;32;20419;-77
2021/03/28 02:47:36;;;;;;;14.80;3.20;;;;;;;;;;4375313;32;20182;-77
2021/03/28 02:50:08;;;;;;;10.63;3.47;;;;;;;;;;4361353;32;20170;-76
2021/03/28 02:52:45;;;;;;;11.73;3.60;;;;;;;;;;4375274;32;20567;-77
2021/03/28 02:55:31;;;;;;;18.67;4.33;;;;;;;;;;4375281;32;20139;-77
2021/03/28 02:58:05;;;;;;;19.37;4.33;;;;;;;;;;4374872;32;20511;-76
2021/03/28 03:00:49;;;;;;;19.77;4.40;;;;;;;;;;4374745;32;20169;-77
2021/03/28 03:03:17;;;;;;;11.13;3.47;;;;;;;;;;4376015;32;20582;-77
2021/03/28 03:05:42;;;;;;;15.77;3.47;;;;;;;;;;4361038;32;20158;-78
2021/03/28 03:08:08;;;;;;;15.00;3.60;;;;;;;;;;4375246;32;20197;-78
2021/03/28 03:10:33;;;;;;;11.90;3.57;;;;;;;;;;4375029;32;20167;-75
2021/03/28 03:13:10;;;;;;;16.50;3.50;;;;;;;;;;4375197;32;20459;-77
2021/03/28 03:15:47;;;;;;;12.03;3.33;;;;;;;;;;4375421;32;20138;-77
2021/03/28 03:18:38;;;;;;;17.37;4.00;;;;;;;;;;4375472;32;20146;-77
2021/03/28 03:21:23;;;;;;;14.63;3.13;;;;;;;;;;4375649;32;20135;-77
2021/03/28 03:23:58;;;;;;;10.43;2.80;;;;;;;;;;4361654;32;20163;-77
2021/03/28 03:26:42;;;;;;;10.30;3.27;;;;;;;;;;4375404;32;20146;-77
2021/03/28 03:29:15;;;;;;;9.60;3.27;;;;;;;;;;4374767;32;20432;-77
2021/03/28 03:31:46;;;;;;;11.20;2.77;;;;;;;;;;4375834;32;20202;-77
2021/03/28 03:34:29;;;;;;;11.77;3.17;;;;;;;;;;4360973;32;20194;-77
2021/03/28 03:37:06;;;;;;;12.97;3.20;;;;;;;;;;4375566;32;20143;-77
2021/03/28 03:39:41;;;;;;;12.60;3.90;;;;;;;;;;4374399;32;20159;-76
2021/03/28 03:42:22;;;;;;;13.47;3.80;;;;;;;;;;4375730;32;20131;-76
2021/03/28 03:45:07;;;;;;;14.60;3.30;;;;;;;;;;4378647;32;20261;-77
2021/03/28 03:47:39;;;;;;;16.67;3.83;;;;;;;;;;4377535;32;20512;-75
2021/03/28 03:50:23;;;;;;;12.83;3.40;;;;;;;;;;4378805;32;20147;-77
2021/03/28 03:52:48;;;;;;;11.30;3.17;;;;;;;;;;4364482;32;20660;-75
2021/03/28 03:55:25;;;;;;;11.03;3.20;;;;;;;;;;4378007;32;20459;-76
2021/03/28 03:57:53;;;;;;;9.30;3.10;;;;;;;;;;4377495;32;20261;-76
2021/03/28 04:00:39;;;;;;;18.83;3.50;;;;;;;;;;4377909;32;20130;-77
2021/03/28 04:03:04;;;;;;;10.27;3.37;;;;;;;;;;4377432;32;20527;-76
2021/03/28 04:05:29;;;;;;;10.50;3.07;;;;;;;;;;4377530;32;20225;-77
2021/03/28 04:07:54;;;;;;;16.33;3.60;;;;;;;;;;4377187;32;20143;-77
2021/03/28 04:10:38;;;;;;;10.93;3.20;;;;;;;;;;4377759;32;20165;-76
2021/03/28 04:13:19;;;;;;;11.27;3.13;;;;;;;;;;4377691;32;20139;-77
2021/03/28 04:15:53;;;;;;;12.90;3.43;;;;;;;;;;4363539;32;20239;-75
2021/03/28 04:18:34;;;;;;;10.03;3.50;;;;;;;;;;4377027;32;20161;-76
2021/03/28 04:21:17;;;;;;;17.03;4.37;;;;;;;;;;4377043;32;20600;-76
2021/03/28 04:23:57;;;;;;;15.43;3.63;;;;;;;;;;4378632;32;20205;-76
2021/03/28 04:26:41;;;;;;;10.00;3.27;;;;;;;;;;4377375;32;20432;-77
2021/03/28 04:29:08;;;;;;;15.30;2.97;;;;;;;;;;4377136;32;20593;-76
2021/03/28 04:31:47;;;;;;;9.37;2.80;;;;;;;;;;4377011;32;20135;-78
2021/03/28 04:34:17;;;;;;;11.83;2.80;;;;;;;;;;4377210;32;20143;-78
2021/03/28 04:37:09;;;;;;;17.37;3.40;;;;;;;;;;4377552;32;20134;-76
2021/03/28 04:39:56;;;;;;;12.23;2.90;;;;;;;;;;4374195;32;20250;-78
2021/03/28 04:42:40;;;;;;;8.70;2.50;;;;;;;;;;4376809;32;20177;-77
2021/03/28 04:45:24;;;;;;;13.53;2.70;;;;;;;;;;4377472;32;20135;-77
2021/03/28 04:47:58;;;;;;;13.27;2.93;;;;;;;;;;4376864;32;20216;-77
2021/03/28 04:50:42;;;;;;;14.00;2.87;;;;;;;;;;4376655;32;20223;-77
2021/03/28 04:53:26;;;;;;;9.40;2.73;;;;;;;;;;4377321;32;20217;-77
2021/03/28 04:56:03;;;;;;;12.73;2.67;;;;;;;;;;4375940;32;20198;-77
2021/03/28 04:58:42;;;;;;;7.70;2.17;;;;;;;;;;4362935;32;20228;-76
2021/03/28 05:01:17;;;;;;;13.57;2.50;;;;;;;;;;4363754;32;20371;-76
2021/03/28 05:03:42;;;;;;;12.07;2.33;;;;;;;;;;4377009;32;20139;-76
2021/03/28 05:06:22;;;;;;;10.83;2.50;;;;;;;;;;4376578;32;20182;-78
2021/03/28 05:08:55;;;;;;;10.57;2.43;;;;;;;;;;4377886;32;20139;-77
2021/03/28 05:11:39;;;;;;;9.90;2.83;;;;;;;;;;4376499;32;20154;-77
2021/03/28 05:14:20;;;;;;;10.47;2.53;;;;;;;;;;4376788;32;20135;-77
2021/03/28 05:16:58;;;;;;;13.43;2.43;;;;;;;;;;4362497;32;20216;-76
2021/03/28 05:19:40;;;;;;;11.23;2.37;;;;;;;;;;4376247;32;20165;-77
2021/03/28 05:22:08;;;;;;;7.23;2.50;;;;;;;;;;4377274;32;20600;-76
2021/03/28 05:24:49;;;;;;;10.33;2.60;;;;;;;;;;4362521;32;20166;-77
2021/03/28 05:27:17;;;;;;;11.37;2.30;;;;;;;;;;4377565;32;20170;-76
2021/03/28 05:29:51;;;;;;;9.03;2.50;;;;;;;;;;4376559;32;20139;-76
2021/03/28 05:32:35;;;;;;;11.37;2.50;;;;;;;;;;4376256;32;20136;-77
2021/03/28 05:35:19;;;;;;;10.10;2.60;;;;;;;;;;4362548;32;20280;-76
2021/03/28 05:37:51;;;;;;;11.17;2.60;;;;;;;;;;4376495;32;20135;-78
2021/03/28 05:40:36;;;;;;;8.00;2.27;;;;;;;;;;4375706;32;20193;-76
2021/03/28 05:43:07;;;;;;;11.63;2.40;;;;;;;;;;4376415;32;20168;-78
2021/03/28 05:45:51;;;;;;;9.80;2.30;;;;;;;;;;4362196;32;20428;-76
2021/03/28 05:48:36;;;;;;;10.20;2.60;;;;;;;;;;4376773;32;20166;-77
2021/03/28 05:51:20;;;;;;;7.10;2.10;;;;;;;;;;4375719;32;20146;-77
2021/03/28 05:53:48;;;;;;;8.87;2.20;;;;;;;;;;4376305;32;20193;-76
2021/03/28 05:56:42;;;;;;;10.07;2.63;;;;;;;;;;4375618;32;20536;-78
2021/03/28 05:59:37;;;;;;;9.70;2.50;;;;;;;;;;4362339;32;20625;-77
2021/03/28 06:02:31;;;;;;;14.10;2.80;;;;;;;;;;4376543;32;20164;-77
2021/03/28 06:05:15;;;;;;;9.37;2.73;;;;;;;;;;4375968;32;20165;-77
2021/03/28 06:07:46;;;;;;;8.60;2.50;;;;;;;;;;4376485;32;20205;-76
2021/03/28 06:10:30;;;;;;;9.33;2.50;;;;;;;;;;4375437;32;20173;-77
2021/03/28 06:13:08;;;;;;;8.37;2.80;;;;;;;;;;4361853;32;20186;-77
2021/03/28 06:15:33;;;;;;;11.37;2.93;;;;;;;;;;4376063;32;20131;-77
2021/03/28 06:18:17;;;;;;;13.47;2.43;;;;;;;;;;4377676;32;20204;-78
2021/03/28 06:21:01;;;;;;;12.53;3.23;;;;;;;;;;4376869;32;20242;-78
2021/03/28 06:23:46;;;;;;;8.03;2.40;;;;;;;;;;4379712;32;20212;-77
2021/03/28 06:26:14;;;;;;;9.90;2.43;;;;;;;;;;4382135;32;20161;-77
2021/03/28 06:28:39;;;;;;;11.17;2.70;;;;;;;;;;4363984;32;20162;-78
2021/03/28 06:31:23;;;;;;;6.40;2.67;;;;;;;;;;4375865;32;20504;-78
2021/03/28 06:33:51;;;;;;;13.43;2.67;;;;;;;;;;4375176;32;20266;-80
2021/03/28 06:36:35;;;;;;;10.23;2.70;;;;;;;;;;4375110;32;20139;-78
2021/03/28 06:39:12;;;;;;;6.80;2.60;;;;;;;;;;4361673;32;20166;-78
2021/03/28 06:41:56;;;;;;;9.60;3.07;;;;;;;;;;4376331;32;20235;-78
2021/03/28 06:44:36;;;;;;;7.53;2.93;;;;;;;;;;4375027;32;20135;-77
2021/03/28 06:47:13;;;;;;;11.10;3.00;;;;;;;;;;4375485;32;20130;-76
2021/03/28 06:49:55;;;;;;;11.03;3.20;;;;;;;;;;4376119;32;20189;-78
2021/03/28 06:52:38;;;;;;;11.27;2.80;;;;;;;;;;4376797;32;20138;-75
2021/03/28 06:55:22;;;;;;;9.33;2.83;;;;;;;;;;4375994;32;20142;-77
2021/03/28 06:58:03;;;;;;;10.05;3.22;;;;;;;;;;4375195;32;20601;-77
2021/03/28 07:00:35;;;;;;;9.33;2.90;;;;;;;;;;4375162;32;20166;-78
2021/03/28 07:03:19;;;;;;;8.07;3.30;;;;;;;;;;4376531;32;20143;-78
2021/03/28 07:05:44;;;;;;;9.53;3.60;;;;;;;;;;4390202;32;20165;-78
2021/03/28 07:08:10;;;;;;;9.47;3.20;;;;;;;;;;4390061;32;20143;-77
2021/03/28 07:11:05;;;;;;;7.53;3.07;;;;;;;;;;4389975;32;20147;-76
2021/03/28 07:13:34;;;;;;;8.97;3.23;;;;;;;;;;4366518;32;20226;-76
2021/03/28 07:16:13;;;;;;;11.70;3.80;;;;;;;;;;4389874;32;20169;-76
2021/03/28 07:18:44;;;;;;;9.57;2.80;;;;;;;;;;4390269;32;20166;-76
2021/03/28 07:21:33;;;;;;;11.77;3.00;;;;;;;;;;4390625;32;20147;-73
2021/03/28 07:24:17;;;;;;;11.40;3.40;;;;;;;;;;4390388;32;20142;-76
2021/03/28 07:26:49;;;;;;;14.00;3.23;;;;;;;;;;4389837;32;20464;-76
2021/03/28 07:29:31;;;;;;;10.57;3.17;;;;;;;;;;4390910;32;20139;-75
2021/03/28 07:32:09;;;;;;;13.03;3.30;;;;;;;;;;4390243;32;20185;-77
2021/03/28 07:34:46;;;;;;;12.30;3.08;;;;;;;;;;4375675;32;20162;-75
2021/03/28 07:37:30;;;;;;;7.20;2.83;;;;;;;;;;4390675;32;20229;-73
2021/03/28 07:40:16;;;;;;;11.63;3.00;;;;;;;;;;4389646;32;20154;-77
2021/03/28 07:42:59;;;;;;;12.10;3.30;;;;;;;;;;4390028;32;20131;-76
2021/03/28 07:45:41;;;;;;;11.90;3.87;;;;;;;;;;4390555;32;20142;-75
2021/03/28 07:48:25;;;;;;;13.37;3.90;;;;;;;;;;4389932;32;20161;-78
2021/03/28 07:51:17;;;;;;;12.45;3.40;;;;;;;;;;4375745;32;20667;-75
2021/03/28 07:54:03;;;;;;;11.97;3.50;;;;;;;;;;4390341;32;20464;-77
2021/03/28 07:56:31;;;;;;;9.13;3.08;;;;;;;;;;4390428;32;20161;-76
2021/03/28 07:59:07;;;;;;;8.32;2.97;;;;;;;;;;4375575;32;20158;-77
2021/03/28 08:01:41;;;;;;;9.73;3.05;;;;;;;;;;4390104;32;20173;-76
2021/03/28 08:04:25;;;;;;;11.00;3.07;;;;;;;;;;4390377;32;20142;-75
2021/03/28 08:06:53;;;;;;;9.50;3.00;;;;;;;;;;4389694;32;20139;-75
2021/03/28 08:09:19;;;;;;;8.38;3.35;;;;;;;;;;4389217;32;20174;-73
2021/03/28 08:11:53;;;;;;;7.57;2.87;;;;;;;;;;4389152;32;20138;-73
2021/03/28 08:14:24;;;;;;;7.55;2.83;;;;;;;;;;4375334;32;20212;-77
2021/03/28 08:17:07;;;;;;;6.12;2.72;;;;;;;;;;4388948;32;20157;-76
2021/03/28 08:19:45;;;;;;;8.88;3.08;;;;;;;;;;4390791;32;20139;-75
2021/03/28 08:22:43;;;;;;;10.88;3.03;;;;;;;;;;4389708;32;20458;-76
2021/03/28 08:25:20;;;;;;;10.77;2.70;;;;;;;;;;4355641;32;20276;-76
2021/03/28 08:28:04;;;;;;;13.07;3.15;;;;;;;;;;4389489;32;20138;-73
2021/03/28 08:30:43;;;;;;;13.07;2.60;;;;;;;;;;4390928;32;20444;-76
2021/03/28 08:33:27;;;;;;;10.48;2.47;;;;;;;;;;4378390;32;20514;-76
2021/03/28 08:35:59;;;;;;;12.73;2.75;;;;;;;;;;4392157;32;20150;-76
2021/03/28 08:38:45;;;;;;;9.02;2.70;;;;;;;;;;4392066;32;20566;-75
2021/03/28 08:41:16;;;;;;;10.15;2.47;;;;;;;;;;4392326;32;20146;-74
2021/03/28 08:44:00;;;;;;;11.30;2.40;;;;;;;;;;4391662;32;20161;-75
2021/03/28 08:46:43;;;;;;;9.57;2.85;;;;;;;;;;4376500;32;20200;-76
2021/03/28 08:49:28;;;;;;;11.57;2.80;;;;;;;;;;4362785;32;20162;-76
2021/03/28 08:52:12;;;;;;;14.50;2.80;;;;;;;;;;4376300;32;20165;-75
2021/03/28 08:54:59;;;;;;;8.27;2.70;;;;;;;;;;4376287;32;20176;-75
2021/03/28 08:57:43;;;;;;;8.90;2.60;;;;;;;;;;4377141;32;20139;-76
2021/03/28 09:00:29;;;;;;;16.15;2.85;;;;;;;;;;4377471;32;20241;-73
2021/03/28 09:02:59;;;;;;;9.60;3.08;;;;;;;;;;4371150;32;20188;-75
2021/03/28 09:05:33;;;;;;;8.15;2.35;;;;;;;;;;4390681;32;20169;-78
2021/03/28 09:08:07;;;;;;;8.63;2.67;;;;;;;;;;4391397;32;20208;-69
2021/03/28 09:10:42;;;;;;;9.55;2.80;;;;;;;;;;4392348;32;20154;-68
2021/03/28 09:13:26;;;;;;;8.10;2.10;;;;;;;;;;4377680;32;20166;-70
2021/03/28 09:15:55;;;;;;;8.35;2.20;;;;;;;;;;4378254;32;20188;-73
2021/03/28 09:18:25;;;;;;;7.28;2.05;;;;;;;;;;4381310;32;20167;-72
2021/03/28 09:20:56;;;;;;;8.90;2.78;;;;;;;;;;4376396;32;20505;-72
2021/03/28 09:23:21;;;;;;;8.27;2.45;;;;;;;;;;4376453;32;20158;-72
2021/03/28 09:25:55;;;;;;;6.05;2.45;;;;;;;;;;4376379;32;20166;-70
2021/03/28 09:28:39;;;;;;;13.68;2.85;;;;;;;;;;4377034;32;20166;-72
2021/03/28 09:31:07;;;;;;;7.00;2.10;;;;;;;;;;4377205;32;20150;-68
2021/03/28 09:33:46;;;;;;;8.35;2.53;;;;;;;;;;4380502;32;20155;-70
2021/03/28 09:36:30;;;;;;;9.38;2.60;;;;;;;;;;4376870;32;20519;-70
2021/03/28 09:38:55;;;;;;;5.53;1.83;;;;;;;;;;4375946;32;20147;-69
2021/03/28 09:41:21;;;;;;;11.07;2.47;;;;;;;;;;4376021;32;20143;-70
2021/03/28 09:44:00;;;;;;;8.43;2.30;;;;;;;;;;4375921;32;20470;-68
2021/03/28 09:46:37;;;;;;;8.73;1.87;;;;;;;;;;4376725;32;20146;-72
2021/03/28 09:49:23;;;;;;;8.13;2.62;;;;;;;;;;4375134;32;20197;-73
2021/03/28 09:51:57;;;;;;;11.48;2.30;;;;;;;;;;4350918;32;20255;-73
2021/03/28 09:54:32;;;;;;;10.93;2.12;;;;;;;;;;4375868;32;20530;-71
2021/03/28 09:57:08;;;;;;;9.63;2.40;;;;;;;;;;4375815;32;20204;-72
2021/03/28 09:59:40;;;;;;;12.55;2.67;;;;;;;;;;4361882;32;20181;-70
2021/03/28 10:02:11;;;;;;;8.52;2.25;;;;;;;;;;4375918;32;20487;-72
2021/03/28 10:04:55;;;;;;;9.50;2.15;;;;;;;;;;4376503;32;20143;-73
2021/03/28 10:07:26;;;;;;;9.00;2.17;;;;;;;;;;4375743;32;20581;-73
2021/03/28 10:10:03;;;;;;;12.85;3.00;;;;;;;;;;4384479;32;20158;-71
2021/03/28 10:12:28;;;;;;;8.68;2.95;;;;;;;;;;4383728;32;20613;-70
2021/03/28 10:14:54;;;;;;;12.43;2.78;;;;;;;;;;4389415;32;20192;-72
2021/03/28 10:17:40;;;;;;;7.72;2.00;;;;;;;;;;4390405;32;20147;-69
2021/03/28 10:20:19;;;;;;;10.57;2.25;;;;;;;;;;4390028;32;20206;-67
2021/03/28 10:22:53;;;;;;;7.57;2.40;;;;;;;;;;4390040;32;20582;-72
2021/03/28 10:25:37;;;;;;;12.73;2.47;;;;;;;;;;4389179;32;20263;-73
2021/03/28 10:28:21;;;;;;;7.78;2.58;;;;;;;;;;4385602;32;20562;-73
2021/03/28 10:30:53;;;;;;;7.78;2.22;;;;;;;;;;4381324;32;20672;-68
2021/03/28 10:33:18;;;;;;;8.73;2.50;;;;;;;;;;4396008;32;20189;-72
2021/03/28 10:35:52;;;;;;;11.32;2.53;;;;;;;;;;4375948;32;20220;-72
2021/03/28 10:38:20;;;;;;;9.23;2.65;;;;;;;;;;4366495;32;20530;-73
2021/03/28 10:40:58;;;;;;;8.30;2.25;;;;;;;;;;4389210;32;20200;-71
2021/03/28 10:43:30;;;;;;;8.68;2.05;;;;;;;;;;4375738;32;20162;-72
2021/03/28 10:46:13;;;;;;;9.25;2.37;;;;;;;;;;4382114;32;20202;-70
2021/03/28 10:48:45;;;;;;;10.82;2.40;;;;;;;;;;4382827;32;20182;-71
2021/03/28 10:51:16;;;;;;;10.85;2.58;;;;;;;;;;4383797;32;20143;-72
2021/03/28 10:54:00;;;;;;;11.70;2.17;;;;;;;;;;4379059;32;20177;-72
2021/03/28 10:56:40;;;;;;;10.07;2.10;;;;;;;;;;4379800;32;20177;-72
2021/03/28 10:59:31;;;;;;;9.25;2.12;;;;;;;;;;4385780;32;20546;-72
2021/03/28 11:02:22;;;;;;;13.55;2.83;;;;;;;;;;4389865;32;20751;-73
2021/03/28 11:05:06;;;;;;;7.18;1.85;;;;;;;;;;4390797;32;20150;-72
2021/03/28 11:07:45;;;;;;;10.32;2.03;;;;;;;;;;4375736;32;20169;-71
2021/03/28 11:10:24;;;;;;;7.22;1.92;;;;;;;;;;4387716;32;20162;-70
2021/03/28 11:13:11;;;;;;;6.40;1.70;;;;;;;;;;4388959;32;20166;-73
2021/03/28 11:15:47;;;;;;;8.18;1.90;;;;;;;;;;4376472;32;20173;-71
2021/03/28 11:18:28;;;;;;;12.65;2.10;;;;;;;;;;4389018;32;20201;-71
2021/03/28 11:20:57;;;;;;;10.98;2.30;;;;;;;;;;4389534;32;20159;-73
2021/03/28 11:23:42;;;;;;;10.25;2.00;;;;;;;;;;4375714;32;20170;-72
2021/03/28 11:26:13;;;;;;;11.00;1.95;;;;;;;;;;4375856;32;20158;-69
2021/03/28 11:28:38;;;;;;;11.30;2.03;;;;;;;;;;4375339;32;20205;-70
2021/03/28 11:31:07;;;;;;;12.00;2.28;;;;;;;;;;4389247;32;20180;-71
2021/03/28 11:33:34;;;;;;;9.00;1.70;;;;;;;;;;4390665;32;20184;-71
2021/03/28 11:36:01;;;;;;;11.23;2.15;;;;;;;;;;4373128;32;20174;-70
2021/03/28 11:38:30;;;;;;;13.40;2.42;;;;;;;;;;4381068;32;20154;-72
2021/03/28 11:41:11;;;;;;;9.20;2.05;;;;;;;;;;4388706;32;20252;-74
2021/03/28 11:43:48;;;;;;;5.87;2.00;;;;;;;;;;4387598;32;20214;-75
2021/03/28 11:46:22;;;;;;;12.15;3.30;;;;;;;;;;4388869;32;20146;-74
2021/03/28 11:49:04;;;;;;;13.80;2.50;;;;;;;;;;4389280;32;20141;-73
2021/03/28 11:51:40;;;;;;;10.10;2.53;;;;;;;;;;4390044;32;20174;-75
2021/03/28 11:54:15;;;;;;;10.30;2.00;;;;;;;;;;4390236;32;20138;-75
2021/03/28 11:56:52;;;;;;;7.30;2.00;;;;;;;;;;4375508;32;20162;-72
2021/03/28 11:59:19;;;;;;;7.50;1.90;;;;;;;;;;4388793;32;20146;-73
2021/03/28 12:02:01;;;;;;;8.85;2.28;;;;;;;;;;4388536;32;20150;-69
2021/03/28 12:04:32;;;;;;;10.95;2.30;;;;;;;;;;4389471;32;20150;-72
2021/03/28 12:07:12;;;;;;;11.90;2.22;;;;;;;;;;4391998;32;20241;-74
2021/03/28 12:09:37;;;;;;;9.35;1.92;;;;;;;;;;4391908;32;20628;-76
2021/03/28 12:12:21;;;;;;;10.90;2.12;;;;;;;;;;4378123;32;20163;-75
2021/03/28 12:14:47;;;;;;;4.85;1.60;;;;;;;;;;4368132;32;20205;-75
2021/03/28 12:17:12;;;;;;;9.88;2.40;;;;;;;;;;4363325;32;20524;-73
2021/03/28 12:19:46;;;;;;;8.73;2.25;;;;;;;;;;4363704;32;20228;-72
2021/03/28 12:22:19;;;;;;;9.30;2.47;;;;;;;;;;4384358;32;20149;-72
2021/03/28 12:24:45;;;;;;;11.38;2.50;;;;;;;;;;4392876;32;20146;-74
2021/03/28 12:27:53;;;;;;;11.05;2.47;;;;;;;;;;4378065;32;20185;-76
2021/03/28 12:30:28;;;;;;;10.48;3.35;;;;;;;;;;4317427;33;20253;-72
2021/03/28 12:33:02;;;;;;;9.27;2.72;;;;;;;;;;4371157;32;20212;-70
2021/03/28 12:35:35;;;;;;;16.33;3.30;;;;;;;;;;4392054;32;20138;-71
2021/03/28 12:38:19;;;;;;;12.55;2.87;;;;;;;;;;4377455;32;20674;-72
2021/03/28 12:40:46;;;;;;;11.20;2.45;;;;;;;;;;4391449;32;20232;-74
2021/03/28 12:43:41;;;;;;;13.95;2.83;;;;;;;;;;4377797;32;20189;-73
2021/03/28 12:46:41;;;;;;;10.43;2.22;;;;;;;;;;4310853;32;20195;-74
2021/03/28 12:49:13;;;;;;;18.62;2.42;;;;;;;;;;4376516;32;20205;-72
2021/03/28 12:51:49;;;;;;;12.27;1.70;;;;;;;;;;4370567;32;20755;-74
2021/03/28 12:54:25;;;;;;;10.40;2.60;;;;;;;;;;4377262;32;20253;-71
2021/03/28 12:56:52;;;;;;;10.95;2.37;;;;;;;;;;4391618;32;20193;-73
2021/03/28 12:59:42;;;;;;;11.50;2.42;;;;;;;;;;4391653;32;20557;-72
2021/03/28 13:02:26;;;;;;;9.65;2.28;;;;;;;;;;4362821;32;20159;-74
2021/03/28 13:04:56;;;;;;;9.57;2.08;;;;;;;;;;4362488;32;20242;-71
2021/03/28 13:07:38;;;;;;;12.43;2.30;;;;;;;;;;4377380;32;20139;-73
2021/03/28 13:10:05;;;;;;;12.25;2.12;;;;;;;;;;4362194;32;20193;-71
2021/03/28 13:12:31;;;;;;;12.15;2.45;;;;;;;;;;4376000;32;20212;-75
2021/03/28 13:15:33;;;;;;;11.20;2.10;;;;;;;;;;4368018;32;20166;-72
2021/03/28 13:18:20;;;;;;;13.77;1.98;;;;;;;;;;4351102;32;20663;-76
2021/03/28 13:20:50;;;;;;;15.93;2.20;;;;;;;;;;4362186;32;20196;-74
2021/03/28 13:23:21;;;;;;;14.75;2.60;;;;;;;;;;4378825;32;20155;-74
2021/03/28 13:25:46;;;;;;;12.43;2.00;;;;;;;;;;4370971;32;20598;-70
2021/03/28 13:28:20;;;;;;;10.18;2.20;;;;;;;;;;4370191;32;20212;-73
2021/03/28 13:30:46;;;;;;;11.40;1.92;;;;;;;;;;4376852;32;20477;-73
2021/03/28 13:33:17;;;;;;;12.35;2.53;;;;;;;;;;4377294;32;20260;-73
2021/03/28 13:35:46;;;;;;;9.05;1.87;;;;;;;;;;4382568;32;20182;-74
2021/03/28 13:38:46;;;;;;;10.23;1.95;;;;;;;;;;4389467;32;20163;-72
2021/03/28 13:41:25;;;;;;;10.48;2.17;;;;;;;;;;4389475;32;20628;-73
2021/03/28 13:43:50;;;;;;;14.77;2.78;;;;;;;;;;4377094;32;20150;-74
2021/03/28 13:46:17;;;;;;;11.35;2.45;;;;;;;;;;4376898;32;20578;-74
2021/03/28 13:48:44;;;;;;;11.95;2.08;;;;;;;;;;4378027;32;20154;-68
2021/03/28 13:51:22;;;;;;;12.37;2.40;;;;;;;;;;4390462;32;20244;-74
2021/03/28 13:53:57;;;;;;;13.15;2.00;;;;;;;;;;4377006;32;20212;-72
2021/03/28 13:56:29;;;;;;;8.48;2.25;;;;;;;;;;4392230;32;20123;-71
2021/03/28 13:59:02;;;;;;;8.75;1.83;;;;;;;;;;4391068;32;20131;-75
2021/03/28 14:01:33;;;;;;;11.77;2.42;;;;;;;;;;4390808;32;20552;-72
2021/03/28 14:04:12;;;;;;;11.57;2.20;;;;;;;;;;4377286;32;20404;-73
2021/03/28 14:06:38;;;;;;;8.48;1.87;;;;;;;;;;4377274;32;20610;-71
2021/03/28 14:09:03;;;;;;;7.75;1.62;;;;;;;;;;4390087;32;20135;-74
2021/03/28 14:11:33;;;;;;;10.77;2.53;;;;;;;;;;4390308;32;20191;-71
2021/03/28 14:14:11;;;;;;;10.48;2.12;;;;;;;;;;4384630;32;20248;-73
2021/03/28 14:16:40;;;;;;;11.15;2.08;;;;;;;;;;4375583;32;20149;-74
2021/03/28 14:19:13;;;;;;;10.45;2.33;;;;;;;;;;4361762;32;20181;-74
2021/03/28 14:21:39;;;;;;;9.68;1.92;;;;;;;;;;4375356;32;20192;-73
2021/03/28 14:24:10;;;;;;;15.73;2.97;;;;;;;;;;4361300;32;20225;-71
2021/03/28 14:26:43;;;;;;;12.95;2.50;;;;;;;;;;4361860;32;20155;-71
2021/03/28 14:29:23;;;;;;;10.45;2.10;;;;;;;;;;4385083;32;20253;-73
2021/03/28 14:31:53;;;;;;;8.60;1.80;;;;;;;;;;4376507;32;20193;-73
2021/03/28 14:34:24;;;;;;;9.68;2.08;;;;;;;;;;4375815;32;20193;-73
2021/03/28 14:37:01;;;;;;;9.80;1.77;;;;;;;;;;4376364;32;20583;-71
2021/03/28 14:39:40;;;;;;;10.25;2.20;;;;;;;;;;4376162;32;20188;-72
2021/03/28 14:42:16;;;;;;;8.02;1.92;;;;;;;;;;4362060;32;20158;-72
2021/03/28 14:44:53;;;;;;;12.10;2.80;;;;;;;;;;4375924;32;20161;-72
2021/03/28 14:47:24;;;;;;;9.82;2.83;;;;;;;;;;4390002;32;20166;-73
2021/03/28 14:49:55;;;;;;;9.07;2.33;;;;;;;;;;4375578;32;20462;-75
2021/03/28 14:52:20;;;;;;;11.85;2.25;;;;;;;;;;4390009;32;20130;-74
2021/03/28 14:54:53;;;;;;;14.93;2.53;;;;;;;;;;4376272;32;20154;-74
2021/03/28 14:57:23;;;;;;;14.35;2.50;;;;;;;;;;4390157;32;20327;-72
2021/03/28 14:59:59;;;;;;;12.48;2.53;;;;;;;;;;4375906;32;20224;-70
2021/03/28 15:02:33;;;;;;;13.65;2.80;;;;;;;;;;4374801;32;20130;-71
2021/03/28 15:05:02;;;;;;;16.65;2.78;;;;;;;;;;4374633;32;20189;-73
2021/03/28 15:07:38;;;;;;;9.80;2.05;;;;;;;;;;4361095;32;20474;-69
2021/03/28 15:10:15;;;;;;;11.45;2.53;;;;;;;;;;4360662;32;20166;-69
2021/03/28 15:12:43;;;;;;;14.73;2.50;;;;;;;;;;4374919;32;20161;-71
2021/03/28 15:15:26;;;;;;;15.40;2.40;;;;;;;;;;4375605;32;20173;-71
2021/03/28 15:18:12;;;;;;;13.07;2.50;;;;;;;;;;4365723;32;20216;-69
2021/03/28 15:20:41;;;;;;;14.50;2.75;;;;;;;;;;4356336;32;20535;-69
2021/03/28 15:23:12;;;;;;;8.32;2.58;;;;;;;;;;4389476;32;20165;-68
2021/03/28 15:25:46;;;;;;;12.43;2.83;;;;;;;;;;4375622;32;20150;-72
2021/03/28 15:28:16;;;;;;;11.95;2.03;;;;;;;;;;4374325;32;20515;-70